sensor_id;sensor_type;location;lat;lon;timestamp;pressure;altitude;pressure_sealevel;temperature;humidity
55656;BME280;41530;52.382;5.270;2024-03-07T00:00:17;102920.47;;;16.34;50.69
55656;BME280;41530;52.382;5.270;2024-03-07T00:02:48;102914.31;;;16.34;50.69
55656;BME280;41530;52.382;5.270;2024-03-07T00:05:17;102910.03;;;16.31;50.56
55656;BME280;41530;52.382;5.270;2024-03-07T00:07:44;102916.78;;;16.37;50.55
55656;BME280;41530;52.382;5.270;2024-03-07T00:10:14;102916.78;;;16.37;50.35
55656;BME280;41530;52.382;5.270;2024-03-07T00:12:43;102879.34;;;16.12;50.08
55656;BME280;41530;52.382;5.270;2024-03-07T00:15:15;102860.88;;;15.96;50.19
55656;BME280;41530;52.382;5.270;2024-03-07T00:17:42;102917.91;;;16.33;50.45
55656;BME280;41530;52.382;5.270;2024-03-07T00:20:10;102882.97;;;16.11;50.33
55656;BME280;41530;52.382;5.270;2024-03-07T00:22:43;102903.41;;;16.24;50.42
55656;BME280;41530;52.382;5.270;2024-03-07T00:25:10;102910.19;;;16.28;50.33
55656;BME280;41530;52.382;5.270;2024-03-07T00:27:37;102915.06;;;16.22;50.51
55656;BME280;41530;52.382;5.270;2024-03-07T00:30:05;102920.84;;;16.28;50.42
55656;BME280;41530;52.382;5.270;2024-03-07T00:32:32;102899.22;;;16.20;50.29
55656;BME280;41530;52.382;5.270;2024-03-07T00:35:02;102906.06;;;16.24;50.21
55656;BME280;41530;52.382;5.270;2024-03-07T00:37:29;102868.06;;;15.94;50.03
55656;BME280;41530;52.382;5.270;2024-03-07T00:39:57;102878.28;;;16.00;50.09
55656;BME280;41530;52.382;5.270;2024-03-07T00:42:24;102919.59;;;16.20;50.09
55656;BME280;41530;52.382;5.270;2024-03-07T00:44:51;102915.13;;;16.20;50.24
55656;BME280;41530;52.382;5.270;2024-03-07T00:47:18;102893.88;;;16.06;50.05
55656;BME280;41530;52.382;5.270;2024-03-07T00:49:45;102913.69;;;16.15;50.01
55656;BME280;41530;52.382;5.270;2024-03-07T00:52:15;102890.94;;;15.96;49.90
55656;BME280;41530;52.382;5.270;2024-03-07T00:54:42;102918.06;;;16.16;49.81
55656;BME280;41530;52.382;5.270;2024-03-07T00:57:09;102901.84;;;16.06;49.83
55656;BME280;41530;52.382;5.270;2024-03-07T00:59:36;102916.34;;;16.15;50.21
55656;BME280;41530;52.382;5.270;2024-03-07T01:02:03;102904.31;;;16.09;50.20
55656;BME280;41530;52.382;5.270;2024-03-07T01:04:30;102899.28;;;16.04;49.99
55656;BME280;41530;52.382;5.270;2024-03-07T01:07:00;102913.88;;;16.12;49.74
55656;BME280;41530;52.382;5.270;2024-03-07T01:09:30;102910.47;;;16.10;49.64
55656;BME280;41530;52.382;5.270;2024-03-07T01:11:57;102884.94;;;15.93;50.00
55656;BME280;41530;52.382;5.270;2024-03-07T01:14:26;102888.44;;;15.93;49.99
55656;BME280;41530;52.382;5.270;2024-03-07T01:16:53;102893.47;;;15.98;50.04
55656;BME280;41530;52.382;5.270;2024-03-07T01:19:20;102908.94;;;16.06;50.24
55656;BME280;41530;52.382;5.270;2024-03-07T01:21:48;102881.44;;;15.92;50.18
55656;BME280;41530;52.382;5.270;2024-03-07T01:24:15;102903.72;;;16.04;50.23
55656;BME280;41530;52.382;5.270;2024-03-07T01:26:49;102894.91;;;16.03;50.16
55656;BME280;41530;52.382;5.270;2024-03-07T01:29:17;102890.81;;;15.98;50.20
55656;BME280;41530;52.382;5.270;2024-03-07T01:31:44;102891.56;;;16.00;50.25
55656;BME280;41530;52.382;5.270;2024-03-07T01:34:11;102892.34;;;16.02;50.10
55656;BME280;41530;52.382;5.270;2024-03-07T01:36:38;102898.69;;;15.99;50.08
55656;BME280;41530;52.382;5.270;2024-03-07T01:39:04;102879.53;;;15.94;50.15
55656;BME280;41530;52.382;5.270;2024-03-07T01:41:31;102883.22;;;15.92;50.16
55656;BME280;41530;52.382;5.270;2024-03-07T01:44:00;102841.38;;;15.67;50.15
55656;BME280;41530;52.382;5.270;2024-03-07T01:46:31;102836.31;;;15.62;50.27
55656;BME280;41530;52.382;5.270;2024-03-07T01:48:59;102875.81;;;15.83;50.07
55656;BME280;41530;52.382;5.270;2024-03-07T01:51:29;102874.75;;;15.85;49.95
55656;BME280;41530;52.382;5.270;2024-03-07T01:53:57;102890.25;;;15.93;50.20
55656;BME280;41530;52.382;5.270;2024-03-07T01:56:24;102884.16;;;15.91;50.20
55656;BME280;41530;52.382;5.270;2024-03-07T01:58:53;102888.53;;;15.92;50.08
55656;BME280;41530;52.382;5.270;2024-03-07T02:01:25;102888.78;;;15.87;50.41
55656;BME280;41530;52.382;5.270;2024-03-07T02:03:52;102887.94;;;15.87;50.27
55656;BME280;41530;52.382;5.270;2024-03-07T02:06:18;102880.28;;;15.82;50.27
55656;BME280;41530;52.382;5.270;2024-03-07T02:08:45;102876.00;;;15.80;50.15
55656;BME280;41530;52.382;5.270;2024-03-07T02:11:12;102897.63;;;15.88;50.23
55656;BME280;41530;52.382;5.270;2024-03-07T02:13:43;102890.69;;;15.85;50.33
55656;BME280;41530;52.382;5.270;2024-03-07T02:16:10;102875.91;;;15.81;50.21
55656;BME280;41530;52.382;5.270;2024-03-07T02:18:37;102843.09;;;15.52;50.47
55656;BME280;41530;52.382;5.270;2024-03-07T02:21:08;102849.59;;;15.62;50.27
55656;BME280;41530;52.382;5.270;2024-03-07T02:23:38;102847.03;;;15.61;50.28
55656;BME280;41530;52.382;5.270;2024-03-07T02:26:05;102830.88;;;15.50;50.32
55656;BME280;41530;52.382;5.270;2024-03-07T02:28:31;102815.88;;;15.49;50.24
55656;BME280;41530;52.382;5.270;2024-03-07T02:31:01;102783.63;;;15.26;49.97
55656;BME280;41530;52.382;5.270;2024-03-07T02:33:30;102858.91;;;15.70;50.23
55656;BME280;41530;52.382;5.270;2024-03-07T02:36:00;102843.00;;;15.54;50.24
55656;BME280;41530;52.382;5.270;2024-03-07T02:38:26;102871.72;;;15.77;50.43
55656;BME280;41530;52.382;5.270;2024-03-07T02:40:55;102810.09;;;15.42;50.24
55656;BME280;41530;52.382;5.270;2024-03-07T02:43:22;102849.78;;;15.59;50.21
55656;BME280;41530;52.382;5.270;2024-03-07T02:45:49;102870.19;;;15.73;50.32
55656;BME280;41530;52.382;5.270;2024-03-07T02:48:22;102878.06;;;15.75;50.00
55656;BME280;41530;52.382;5.270;2024-03-07T02:50:51;102852.41;;;15.59;50.16
55656;BME280;41530;52.382;5.270;2024-03-07T02:53:18;102858.31;;;15.64;50.37
55656;BME280;41530;52.382;5.270;2024-03-07T02:55:45;102871.31;;;15.69;50.16
55656;BME280;41530;52.382;5.270;2024-03-07T02:58:12;102866.97;;;15.68;50.28
55656;BME280;41530;52.382;5.270;2024-03-07T03:00:38;102872.28;;;15.68;50.34
55656;BME280;41530;52.382;5.270;2024-03-07T03:03:05;102856.59;;;15.63;50.16
55656;BME280;41530;52.382;5.270;2024-03-07T03:05:32;102850.53;;;15.61;50.11
55656;BME280;41530;52.382;5.270;2024-03-07T03:07:59;102842.00;;;15.56;50.19
55656;BME280;41530;52.382;5.270;2024-03-07T03:10:26;102819.78;;;15.43;50.13
55656;BME280;41530;52.382;5.270;2024-03-07T03:12:56;102850.44;;;15.63;50.01
55656;BME280;41530;52.382;5.270;2024-03-07T03:15:28;102807.72;;;15.38;50.16
55656;BME280;41530;52.382;5.270;2024-03-07T03:17:56;102827.34;;;15.49;50.17
55656;BME280;41530;52.382;5.270;2024-03-07T03:20:26;102824.78;;;15.48;50.12
55656;BME280;41530;52.382;5.270;2024-03-07T03:23:01;102841.16;;;15.56;50.13
55656;BME280;41530;52.382;5.270;2024-03-07T03:25:45;102819.56;;;15.46;49.87
55656;BME280;41530;52.382;5.270;2024-03-07T03:28:11;102835.84;;;15.56;49.89
55656;BME280;41530;52.382;5.270;2024-03-07T03:30:40;102821.38;;;15.46;50.08
55656;BME280;41530;52.382;5.270;2024-03-07T03:33:08;102819.78;;;15.43;49.76
55656;BME280;41530;52.382;5.270;2024-03-07T03:35:36;102828.97;;;15.52;49.95
55656;BME280;41530;52.382;5.270;2024-03-07T03:38:05;102780.38;;;15.21;49.99
55656;BME280;41530;52.382;5.270;2024-03-07T03:40:33;102809.59;;;15.36;49.89
55656;BME280;41530;52.382;5.270;2024-03-07T03:43:00;102836.94;;;15.52;49.94
55656;BME280;41530;52.382;5.270;2024-03-07T03:45:30;102828.28;;;15.48;49.99
55656;BME280;41530;52.382;5.270;2024-03-07T03:48:01;102834.28;;;15.52;50.01
55656;BME280;41530;52.382;5.270;2024-03-07T03:50:29;102826.59;;;15.47;49.98
55656;BME280;41530;52.382;5.270;2024-03-07T03:52:55;102841.56;;;15.48;50.15
55656;BME280;41530;52.382;5.270;2024-03-07T03:55:27;102843.25;;;15.49;50.19
55656;BME280;41530;52.382;5.270;2024-03-07T03:57:53;102838.13;;;15.46;49.97
55656;BME280;41530;52.382;5.270;2024-03-07T04:00:20;102846.09;;;15.46;49.98
55656;BME280;41530;52.382;5.270;2024-03-07T04:02:49;102826.28;;;15.38;49.96
55656;BME280;41530;52.382;5.270;2024-03-07T04:05:18;102790.22;;;15.19;49.98
55656;BME280;41530;52.382;5.270;2024-03-07T04:07:46;102841.84;;;15.44;49.89
55656;BME280;41530;52.382;5.270;2024-03-07T04:10:15;102822.84;;;15.36;50.07
55656;BME280;41530;52.382;5.270;2024-03-07T04:12:44;102840.13;;;15.43;49.97
55656;BME280;41530;52.382;5.270;2024-03-07T04:15:13;102835.78;;;15.42;49.80
55656;BME280;41530;52.382;5.270;2024-03-07T04:17:40;102835.94;;;15.39;50.04
55656;BME280;41530;52.382;5.270;2024-03-07T04:20:07;102831.50;;;15.39;49.95
55656;BME280;41530;52.382;5.270;2024-03-07T04:22:37;102820.88;;;15.39;49.93
55656;BME280;41530;52.382;5.270;2024-03-07T04:25:07;102820.28;;;15.34;49.84
55656;BME280;41530;52.382;5.270;2024-03-07T04:27:38;102811.09;;;15.25;49.90
55656;BME280;41530;52.382;5.270;2024-03-07T04:30:10;102822.16;;;15.32;49.90
55656;BME280;41530;52.382;5.270;2024-03-07T04:32:39;102824.81;;;15.32;50.09
55656;BME280;41530;52.382;5.270;2024-03-07T04:35:09;102830.03;;;15.33;50.02
55656;BME280;41530;52.382;5.270;2024-03-07T04:37:39;102825.03;;;15.29;50.00
55656;BME280;41530;52.382;5.270;2024-03-07T04:40:09;102825.09;;;15.27;50.07
55656;BME280;41530;52.382;5.270;2024-03-07T04:42:48;102836.28;;;15.32;49.94
55656;BME280;41530;52.382;5.270;2024-03-07T04:45:18;102818.44;;;15.20;49.85
55656;BME280;41530;52.382;5.270;2024-03-07T04:47:46;102829.56;;;15.27;49.98
55656;BME280;41530;52.382;5.270;2024-03-07T04:50:14;102827.00;;;15.25;50.10
55656;BME280;41530;52.382;5.270;2024-03-07T04:52:45;102829.56;;;15.27;49.87
55656;BME280;41530;52.382;5.270;2024-03-07T04:55:13;102817.66;;;15.18;49.88
55656;BME280;41530;52.382;5.270;2024-03-07T04:57:41;102820.53;;;15.15;49.97
55656;BME280;41530;52.382;5.270;2024-03-07T05:00:10;102831.44;;;15.25;49.97
55656;BME280;41530;52.382;5.270;2024-03-07T05:02:41;102826.38;;;15.20;50.11
55656;BME280;41530;52.382;5.270;2024-03-07T05:05:08;102826.59;;;15.17;49.91
55656;BME280;41530;52.382;5.270;2024-03-07T05:07:35;102835.19;;;15.21;50.05
55656;BME280;41530;52.382;5.270;2024-03-07T05:10:03;102825.44;;;15.21;49.76
55656;BME280;41530;52.382;5.270;2024-03-07T05:12:33;102810.25;;;15.09;49.88
55656;BME280;41530;52.382;5.270;2024-03-07T05:15:00;102816.41;;;15.10;49.94
55656;BME280;41530;52.382;5.270;2024-03-07T05:17:27;102823.09;;;15.17;50.03
55656;BME280;41530;52.382;5.270;2024-03-07T05:19:55;102826.00;;;15.12;49.94
55656;BME280;41530;52.382;5.270;2024-03-07T05:22:22;102802.56;;;15.05;49.89
55656;BME280;41530;52.382;5.270;2024-03-07T05:24:54;102815.56;;;15.09;49.82
55656;BME280;41530;52.382;5.270;2024-03-07T05:27:23;102809.84;;;15.01;49.94
55656;BME280;41530;52.382;5.270;2024-03-07T05:29:50;102817.25;;;15.10;49.90
55656;BME280;41530;52.382;5.270;2024-03-07T05:32:23;102831.28;;;15.12;49.85
55656;BME280;41530;52.382;5.270;2024-03-07T05:34:52;102823.44;;;15.11;49.74
55656;BME280;41530;52.382;5.270;2024-03-07T05:37:22;102832.22;;;15.11;49.85
55656;BME280;41530;52.382;5.270;2024-03-07T05:39:49;102781.25;;;14.76;50.01
55656;BME280;41530;52.382;5.270;2024-03-07T05:42:16;102780.38;;;14.76;49.91
55656;BME280;41530;52.382;5.270;2024-03-07T05:44:44;102788.06;;;14.80;49.81
55656;BME280;41530;52.382;5.270;2024-03-07T05:47:13;102833.41;;;15.06;49.78
55656;BME280;41530;52.382;5.270;2024-03-07T05:49:40;102824.81;;;15.02;49.84
55656;BME280;41530;52.382;5.270;2024-03-07T05:52:07;102806.69;;;14.94;51.60
55656;BME280;41530;52.382;5.270;2024-03-07T05:54:35;102754.66;;;14.62;51.77
55656;BME280;41530;52.382;5.270;2024-03-07T05:57:02;102841.22;;;15.09;51.97
55656;BME280;41530;52.382;5.270;2024-03-07T05:59:29;102826.31;;;15.06;51.95
55656;BME280;41530;52.382;5.270;2024-03-07T06:01:58;102799.94;;;14.89;52.11
55656;BME280;41530;52.382;5.270;2024-03-07T06:04:25;102810.47;;;14.90;52.20
55656;BME280;41530;52.382;5.270;2024-03-07T06:06:51;102801.81;;;14.87;52.16
55656;BME280;41530;52.382;5.270;2024-03-07T06:09:18;102828.50;;;15.00;52.03
55656;BME280;41530;52.382;5.270;2024-03-07T06:11:48;102833.63;;;15.03;52.02
55656;BME280;41530;52.382;5.270;2024-03-07T06:14:16;102823.97;;;15.02;52.09
55656;BME280;41530;52.382;5.270;2024-03-07T06:16:45;102831.81;;;15.03;51.98
55656;BME280;41530;52.382;5.270;2024-03-07T06:19:11;102849.16;;;15.09;52.04
55656;BME280;41530;52.382;5.270;2024-03-07T06:21:40;102794.50;;;14.76;51.79
55656;BME280;41530;52.382;5.270;2024-03-07T06:24:12;102811.41;;;14.89;51.72
55656;BME280;41530;52.382;5.270;2024-03-07T06:26:45;102764.56;;;14.58;51.79
55656;BME280;41530;52.382;5.270;2024-03-07T06:29:26;102783.03;;;14.76;51.30
55656;BME280;41530;52.382;5.270;2024-03-07T06:31:55;102744.06;;;14.46;51.28
55656;BME280;41530;52.382;5.270;2024-03-07T06:34:25;102799.50;;;14.81;51.23
55656;BME280;41530;52.382;5.270;2024-03-07T06:36:55;102780.88;;;14.67;50.98
55656;BME280;41530;52.382;5.270;2024-03-07T06:39:35;102762.25;;;14.52;51.06
55656;BME280;41530;52.382;5.270;2024-03-07T06:42:07;102793.03;;;14.71;50.79
55656;BME280;41530;52.382;5.270;2024-03-07T06:44:34;102789.53;;;14.70;50.74
55656;BME280;41530;52.382;5.270;2024-03-07T06:47:05;102756.88;;;14.54;50.62
55656;BME280;41530;52.382;5.270;2024-03-07T06:49:36;102807.75;;;14.76;50.49
55656;BME280;41530;52.382;5.270;2024-03-07T06:52:03;102821.22;;;14.87;49.99
55656;BME280;41530;52.382;5.270;2024-03-07T06:54:31;102850.25;;;15.05;49.89
55656;BME280;41530;52.382;5.270;2024-03-07T06:56:58;102769.94;;;14.57;49.50
55656;BME280;41530;52.382;5.270;2024-03-07T06:59:29;102796.44;;;14.73;49.97
55656;BME280;41530;52.382;5.270;2024-03-07T07:02:03;102783.44;;;14.68;49.97
55656;BME280;41530;52.382;5.270;2024-03-07T07:04:30;102835.59;;;14.99;49.53
55656;BME280;41530;52.382;5.270;2024-03-07T07:07:08;102834.81;;;14.97;49.75
55656;BME280;41530;52.382;5.270;2024-03-07T07:09:38;102804.88;;;14.79;49.56
55656;BME280;41530;52.382;5.270;2024-03-07T07:12:08;102795.22;;;14.78;49.57
55656;BME280;41530;52.382;5.270;2024-03-07T07:14:43;102786.25;;;14.81;49.58
55656;BME280;41530;52.382;5.270;2024-03-07T07:17:17;102742.38;;;14.61;49.42
55656;BME280;41530;52.382;5.270;2024-03-07T07:19:44;102786.63;;;14.90;49.21
55656;BME280;41530;52.382;5.270;2024-03-07T07:22:11;102810.25;;;15.09;49.16
55656;BME280;41530;52.382;5.270;2024-03-07T07:24:42;102805.63;;;15.13;49.14
55656;BME280;41530;52.382;5.270;2024-03-07T07:27:14;102780.53;;;15.04;49.23
55656;BME280;41530;52.382;5.270;2024-03-07T07:29:41;102758.88;;;14.96;49.14
55656;BME280;41530;52.382;5.270;2024-03-07T07:32:20;102762.06;;;15.03;49.02
55656;BME280;41530;52.382;5.270;2024-03-07T07:34:52;102833.25;;;15.54;48.94
55656;BME280;41530;52.382;5.270;2024-03-07T07:37:30;102757.84;;;15.14;49.14
55656;BME280;41530;52.382;5.270;2024-03-07T07:40:26;102755.41;;;15.25;48.99
55656;BME280;41530;52.382;5.270;2024-03-07T07:43:05;102737.88;;;15.23;48.52
55656;BME280;41530;52.382;5.270;2024-03-07T07:45:52;102750.13;;;15.40;48.58
55656;BME280;41530;52.382;5.270;2024-03-07T07:48:34;102738.50;;;15.42;48.62
55656;BME280;41530;52.382;5.270;2024-03-07T07:51:09;102731.94;;;15.48;48.34
55656;BME280;41530;52.382;5.270;2024-03-07T07:53:39;102726.38;;;15.52;48.67
55656;BME280;41530;52.382;5.270;2024-03-07T07:56:08;102765.06;;;15.85;48.31
55656;BME280;41530;52.382;5.270;2024-03-07T07:58:37;102764.63;;;15.92;48.13
55656;BME280;41530;52.382;5.270;2024-03-07T08:01:04;102774.31;;;16.08;48.40
55656;BME280;41530;52.382;5.270;2024-03-07T08:03:31;102774.75;;;16.14;47.92
55656;BME280;41530;52.382;5.270;2024-03-07T08:06:03;102759.31;;;16.21;47.86
55656;BME280;41530;52.382;5.270;2024-03-07T08:08:32;102755.22;;;16.29;47.75
55656;BME280;41530;52.382;5.270;2024-03-07T08:11:00;102759.06;;;16.38;47.58
55656;BME280;41530;52.382;5.270;2024-03-07T08:13:28;102758.41;;;16.49;47.62
55656;BME280;41530;52.382;5.270;2024-03-07T08:15:54;102802.38;;;16.81;47.46
55656;BME280;41530;52.382;5.270;2024-03-07T08:18:21;102767.78;;;16.68;47.20
55656;BME280;41530;52.382;5.270;2024-03-07T08:20:49;102784.44;;;16.85;46.96
55656;BME280;41530;52.382;5.270;2024-03-07T08:23:20;102759.84;;;16.81;46.95
55656;BME280;41530;52.382;5.270;2024-03-07T08:25:46;102724.75;;;16.76;46.71
55656;BME280;41530;52.382;5.270;2024-03-07T08:28:13;102797.75;;;17.24;46.77
55656;BME280;41530;52.382;5.270;2024-03-07T08:30:40;102775.81;;;17.21;46.46
55656;BME280;41530;52.382;5.270;2024-03-07T08:33:07;102762.31;;;17.24;46.33
55656;BME280;41530;52.382;5.270;2024-03-07T08:35:34;102739.53;;;17.20;46.04
55656;BME280;41530;52.382;5.270;2024-03-07T08:38:02;102813.06;;;17.73;46.03
55656;BME280;41530;52.382;5.270;2024-03-07T08:40:30;102785.09;;;17.67;45.76
55656;BME280;41530;52.382;5.270;2024-03-07T08:42:59;102763.22;;;17.62;45.31
55656;BME280;41530;52.382;5.270;2024-03-07T08:45:27;102782.84;;;17.87;45.41
55656;BME280;41530;52.382;5.270;2024-03-07T08:47:56;102776.44;;;17.89;44.97
55656;BME280;41530;52.382;5.270;2024-03-07T08:50:25;102774.94;;;17.98;44.94
55656;BME280;41530;52.382;5.270;2024-03-07T08:52:53;102803.78;;;18.29;44.78
55656;BME280;41530;52.382;5.270;2024-03-07T08:55:23;102799.00;;;18.34;44.34
55656;BME280;41530;52.382;5.270;2024-03-07T08:57:51;102759.66;;;18.25;44.36
55656;BME280;41530;52.382;5.270;2024-03-07T09:00:19;102776.78;;;18.46;44.38
55656;BME280;41530;52.382;5.270;2024-03-07T09:02:51;102797.22;;;18.71;44.14
55656;BME280;41530;52.382;5.270;2024-03-07T09:05:22;102765.66;;;18.65;43.98
55656;BME280;41530;52.382;5.270;2024-03-07T09:07:51;102792.09;;;18.92;43.65
55656;BME280;41530;52.382;5.270;2024-03-07T09:10:18;102797.16;;;19.08;43.41
55656;BME280;41530;52.382;5.270;2024-03-07T09:12:45;102798.31;;;19.16;43.25
55656;BME280;41530;52.382;5.270;2024-03-07T09:15:12;102799.19;;;19.28;42.73
55656;BME280;41530;52.382;5.270;2024-03-07T09:17:39;102784.28;;;19.37;42.63
55656;BME280;41530;52.382;5.270;2024-03-07T09:20:07;102791.28;;;19.50;42.57
55656;BME280;41530;52.382;5.270;2024-03-07T09:22:37;102776.72;;;19.54;41.96
55656;BME280;41530;52.382;5.270;2024-03-07T09:25:04;102784.53;;;19.69;41.97
55656;BME280;41530;52.382;5.270;2024-03-07T09:27:31;102768.84;;;19.75;42.18
55656;BME280;41530;52.382;5.270;2024-03-07T09:29:57;102781.88;;;19.91;42.28
55656;BME280;41530;52.382;5.270;2024-03-07T09:32:24;102763.53;;;19.98;41.53
55656;BME280;41530;52.382;5.270;2024-03-07T09:34:51;102769.47;;;20.12;41.61
55656;BME280;41530;52.382;5.270;2024-03-07T09:37:18;102777.88;;;20.19;40.85
55656;BME280;41530;52.382;5.270;2024-03-07T09:39:47;102761.81;;;20.19;41.40
55656;BME280;41530;52.382;5.270;2024-03-07T09:42:17;102771.41;;;20.33;40.72
55656;BME280;41530;52.382;5.270;2024-03-07T09:44:45;102764.13;;;20.35;41.44
55656;BME280;41530;52.382;5.270;2024-03-07T09:47:14;102746.88;;;20.39;41.46
55656;BME280;41530;52.382;5.270;2024-03-07T09:49:41;102764.59;;;20.51;40.68
55656;BME280;41530;52.382;5.270;2024-03-07T09:52:09;102763.13;;;20.58;40.22
55656;BME280;41530;52.382;5.270;2024-03-07T09:54:38;102748.31;;;20.54;40.46
55656;BME280;41530;52.382;5.270;2024-03-07T09:57:10;102757.88;;;20.68;39.76
55656;BME280;41530;52.382;5.270;2024-03-07T09:59:42;102749.59;;;20.71;39.87
55656;BME280;41530;52.382;5.270;2024-03-07T10:02:12;102731.53;;;20.63;40.26
55656;BME280;41530;52.382;5.270;2024-03-07T10:04:44;102751.63;;;20.78;39.56
55656;BME280;41530;52.382;5.270;2024-03-07T10:07:15;102735.25;;;20.72;40.02
55656;BME280;41530;52.382;5.270;2024-03-07T10:09:43;102744.19;;;20.82;40.51
55656;BME280;41530;52.382;5.270;2024-03-07T10:12:10;102742.72;;;20.89;40.33
55656;BME280;41530;52.382;5.270;2024-03-07T10:14:48;102740.19;;;20.87;39.00
55656;BME280;41530;52.382;5.270;2024-03-07T10:17:16;102739.22;;;20.88;39.91
55656;BME280;41530;52.382;5.270;2024-03-07T10:19:47;102740.91;;;20.89;40.08
55656;BME280;41530;52.382;5.270;2024-03-07T10:22:15;102741.59;;;20.91;40.90
55656;BME280;41530;52.382;5.270;2024-03-07T10:24:55;102740.50;;;20.94;39.08
55656;BME280;41530;52.382;5.270;2024-03-07T10:27:27;102735.28;;;20.92;40.04
55656;BME280;41530;52.382;5.270;2024-03-07T10:29:55;102729.22;;;20.90;40.52
55656;BME280;41530;52.382;5.270;2024-03-07T10:32:23;102718.56;;;20.79;39.88
55656;BME280;41530;52.382;5.270;2024-03-07T10:34:53;102729.47;;;20.87;40.08
55656;BME280;41530;52.382;5.270;2024-03-07T10:37:20;102725.72;;;20.79;39.86
55656;BME280;41530;52.382;5.270;2024-03-07T10:39:52;102711.31;;;20.70;40.20
55656;BME280;41530;52.382;5.270;2024-03-07T10:42:19;102722.34;;;20.77;40.67
55656;BME280;41530;52.382;5.270;2024-03-07T10:44:48;102715.06;;;20.68;40.61
55656;BME280;41530;52.382;5.270;2024-03-07T10:47:17;102730.16;;;20.69;40.79
55656;BME280;41530;52.382;5.270;2024-03-07T10:52:49;102729.59;;;20.54;39.91
55656;BME280;41530;52.382;5.270;2024-03-07T10:58:37;102718.19;;;20.41;41.05
55656;BME280;41530;52.382;5.270;2024-03-07T11:01:05;102710.06;;;20.31;41.12
55656;BME280;41530;52.382;5.270;2024-03-07T11:03:38;102712.84;;;20.29;41.14
55656;BME280;41530;52.382;5.270;2024-03-07T11:06:06;102704.84;;;20.18;41.29
55656;BME280;41530;52.382;5.270;2024-03-07T11:08:38;102701.56;;;20.15;41.32
55656;BME280;41530;52.382;5.270;2024-03-07T11:11:06;102701.72;;;20.02;41.12
55656;BME280;41530;52.382;5.270;2024-03-07T11:13:33;102693.81;;;20.01;41.26
55656;BME280;41530;52.382;5.270;2024-03-07T11:16:01;102697.34;;;19.90;41.18
55656;BME280;41530;52.382;5.270;2024-03-07T11:18:29;102693.22;;;19.86;41.39
55656;BME280;41530;52.382;5.270;2024-03-07T11:20:56;102700.28;;;19.76;41.09
55656;BME280;41530;52.382;5.270;2024-03-07T11:23:28;102694.69;;;19.68;41.55
55656;BME280;41530;52.382;5.270;2024-03-07T11:28:37;102688.00;;;19.51;41.54
55656;BME280;41530;52.382;5.270;2024-03-07T11:31:12;102687.13;;;19.39;41.39
55656;BME280;41530;52.382;5.270;2024-03-07T11:33:41;102691.84;;;19.36;41.96
55656;BME280;41530;52.382;5.270;2024-03-07T11:36:09;102667.19;;;19.21;42.04
55656;BME280;41530;52.382;5.270;2024-03-07T11:38:47;102677.13;;;19.19;41.97
55656;BME280;41530;52.382;5.270;2024-03-07T11:41:19;102678.56;;;19.12;41.68
55656;BME280;41530;52.382;5.270;2024-03-07T11:43:46;102658.63;;;18.94;42.56
55656;BME280;41530;52.382;5.270;2024-03-07T11:46:13;102665.41;;;18.86;42.60
55656;BME280;41530;52.382;5.270;2024-03-07T11:48:43;102670.63;;;18.88;42.71
55656;BME280;41530;52.382;5.270;2024-03-07T11:51:14;102673.53;;;18.85;42.62
55656;BME280;41530;52.382;5.270;2024-03-07T11:53:44;102648.59;;;18.62;43.04
55656;BME280;41530;52.382;5.270;2024-03-07T11:56:17;102666.44;;;18.73;43.02
55656;BME280;41530;52.382;5.270;2024-03-07T11:58:48;102672.97;;;18.69;42.90
55656;BME280;41530;52.382;5.270;2024-03-07T12:01:22;102648.50;;;18.51;43.39
55656;BME280;41530;52.382;5.270;2024-03-07T12:03:52;102665.69;;;18.60;43.30
55656;BME280;41530;52.382;5.270;2024-03-07T12:06:22;102652.88;;;18.52;43.35
55656;BME280;41530;52.382;5.270;2024-03-07T12:08:49;102640.00;;;18.46;43.91
55656;BME280;41530;52.382;5.270;2024-03-07T12:11:16;102638.91;;;18.37;43.38
55656;BME280;41530;52.382;5.270;2024-03-07T12:13:43;102643.38;;;18.37;44.06
55656;BME280;41530;52.382;5.270;2024-03-07T12:16:10;102650.38;;;18.38;44.21
55656;BME280;41530;52.382;5.270;2024-03-07T12:18:38;102606.78;;;18.15;44.20
55656;BME280;41530;52.382;5.270;2024-03-07T12:21:05;102637.41;;;18.33;44.27
55656;BME280;41530;52.382;5.270;2024-03-07T12:23:38;102626.59;;;18.24;43.95
55656;BME280;41530;52.382;5.270;2024-03-07T12:26:05;102635.19;;;18.27;44.55
55656;BME280;41530;52.382;5.270;2024-03-07T12:28:32;102615.53;;;18.17;44.36
55656;BME280;41530;52.382;5.270;2024-03-07T12:31:05;102617.34;;;18.16;44.63
55656;BME280;41530;52.382;5.270;2024-03-07T12:33:42;102606.69;;;18.16;44.61
55656;BME280;41530;52.382;5.270;2024-03-07T12:36:13;102608.97;;;18.10;44.78
55656;BME280;41530;52.382;5.270;2024-03-07T12:38:40;102601.94;;;18.09;44.47
55656;BME280;41530;52.382;5.270;2024-03-07T12:41:09;102601.19;;;18.07;44.75
55656;BME280;41530;52.382;5.270;2024-03-07T12:43:44;102591.81;;;18.01;44.91
55656;BME280;41530;52.382;5.270;2024-03-07T12:46:12;102594.47;;;18.01;44.75
55656;BME280;41530;52.382;5.270;2024-03-07T12:48:40;102592.03;;;17.98;45.14
55656;BME280;41530;52.382;5.270;2024-03-07T12:51:09;102587.19;;;17.92;44.96
55656;BME280;41530;52.382;5.270;2024-03-07T12:53:37;102543.81;;;17.66;44.99
55656;BME280;41530;52.382;5.270;2024-03-07T12:56:04;102573.59;;;17.84;45.18
55656;BME280;41530;52.382;5.270;2024-03-07T12:58:30;102584.72;;;17.89;44.87
55656;BME280;41530;52.382;5.270;2024-03-07T13:00:57;102578.16;;;17.82;44.91
55656;BME280;41530;52.382;5.270;2024-03-07T13:03:25;102586.53;;;17.89;44.76
55656;BME280;41530;52.382;5.270;2024-03-07T13:05:58;102576.47;;;17.81;45.13
55656;BME280;41530;52.382;5.270;2024-03-07T13:08:29;102564.31;;;17.77;45.20